sensor_id;sensor_type;location;lat;lon;timestamp;P1;durP1;ratioP1;P2;durP2;ratioP2
8993;SDS011;4532;50.886;4.700;2023-05-07T00:00:06;5.80;;;3.72;;
8993;SDS011;4532;50.886;4.700;2023-05-07T00:02:35;9.10;;;4.05;;
8993;SDS011;4532;50.886;4.700;2023-05-07T00:05:09;7.35;;;3.88;;
8993;SDS011;4532;50.886;4.700;2023-05-07T00:07:39;7.55;;;3.92;;
8993;SDS011;4532;50.886;4.700;2023-05-07T00:10:07;7.43;;;4.30;;
8993;SDS011;4532;50.886;4.700;2023-05-07T00:12:39;6.63;;;4.10;;
8993;SDS011;4532;50.886;4.700;2023-05-07T00:15:07;7.43;;;4.38;;
8993;SDS011;4532;50.886;4.700;2023-05-07T00:17:40;5.38;;;4.05;;
8993;SDS011;4532;50.886;4.700;2023-05-07T00:20:12;6.80;;;4.13;;
8993;SDS011;4532;50.886;4.700;2023-05-07T00:22:39;6.97;;;4.55;;
8993;SDS011;4532;50.886;4.700;2023-05-07T00:25:09;4.90;;;3.55;;
8993;SDS011;4532;50.886;4.700;2023-05-07T00:27:39;5.10;;;3.97;;
8993;SDS011;4532;50.886;4.700;2023-05-07T00:30:06;7.75;;;4.72;;
8993;SDS011;4532;50.886;4.700;2023-05-07T00:32:37;7.13;;;4.30;;
8993;SDS011;4532;50.886;4.700;2023-05-07T00:35:10;7.32;;;4.20;;
8993;SDS011;4532;50.886;4.700;2023-05-07T00:37:38;7.68;;;4.40;;
8993;SDS011;4532;50.886;4.700;2023-05-07T00:40:06;8.13;;;4.70;;
8993;SDS011;4532;50.886;4.700;2023-05-07T00:42:39;7.15;;;4.13;;
8993;SDS011;4532;50.886;4.700;2023-05-07T00:45:06;5.95;;;4.25;;
8993;SDS011;4532;50.886;4.700;2023-05-07T00:47:34;5.40;;;4.18;;
8993;SDS011;4532;50.886;4.700;2023-05-07T00:50:06;5.88;;;4.22;;
8993;SDS011;4532;50.886;4.700;2023-05-07T00:52:35;7.60;;;4.38;;
8993;SDS011;4532;50.886;4.700;2023-05-07T00:55:06;6.07;;;4.22;;
8993;SDS011;4532;50.886;4.700;2023-05-07T00:57:37;8.05;;;4.57;;
8993;SDS011;4532;50.886;4.700;2023-05-07T01:00:08;8.15;;;4.47;;
8993;SDS011;4532;50.886;4.700;2023-05-07T01:02:44;6.03;;;4.07;;
8993;SDS011;4532;50.886;4.700;2023-05-07T01:05:12;7.47;;;4.85;;
8993;SDS011;4532;50.886;4.700;2023-05-07T01:07:43;5.82;;;4.53;;
8993;SDS011;4532;50.886;4.700;2023-05-07T01:10:12;5.03;;;4.18;;
8993;SDS011;4532;50.886;4.700;2023-05-07T01:12:39;6.45;;;4.47;;
8993;SDS011;4532;50.886;4.700;2023-05-07T01:15:13;6.72;;;4.32;;
8993;SDS011;4532;50.886;4.700;2023-05-07T01:17:41;5.03;;;4.30;;
8993;SDS011;4532;50.886;4.700;2023-05-07T01:20:11;6.30;;;4.78;;
8993;SDS011;4532;50.886;4.700;2023-05-07T01:22:45;7.07;;;4.80;;
8993;SDS011;4532;50.886;4.700;2023-05-07T01:25:14;6.95;;;4.38;;
8993;SDS011;4532;50.886;4.700;2023-05-07T01:27:44;6.63;;;4.93;;
8993;SDS011;4532;50.886;4.700;2023-05-07T01:30:14;8.13;;;5.20;;
8993;SDS011;4532;50.886;4.700;2023-05-07T01:32:45;7.65;;;4.97;;
8993;SDS011;4532;50.886;4.700;2023-05-07T01:35:22;7.07;;;4.88;;
8993;SDS011;4532;50.886;4.700;2023-05-07T01:37:57;9.38;;;5.60;;
8993;SDS011;4532;50.886;4.700;2023-05-07T01:40:27;8.43;;;5.40;;
8993;SDS011;4532;50.886;4.700;2023-05-07T01:42:54;9.57;;;5.57;;
8993;SDS011;4532;50.886;4.700;2023-05-07T01:45:22;9.10;;;5.15;;
8993;SDS011;4532;50.886;4.700;2023-05-07T01:47:55;8.90;;;5.65;;
8993;SDS011;4532;50.886;4.700;2023-05-07T01:50:26;5.70;;;5.10;;
8993;SDS011;4532;50.886;4.700;2023-05-07T01:52:56;7.70;;;5.25;;
8993;SDS011;4532;50.886;4.700;2023-05-07T01:55:24;8.45;;;5.35;;
8993;SDS011;4532;50.886;4.700;2023-05-07T01:57:54;8.68;;;5.03;;
8993;SDS011;4532;50.886;4.700;2023-05-07T02:00:23;7.25;;;4.90;;
8993;SDS011;4532;50.886;4.700;2023-05-07T02:02:50;8.30;;;5.50;;
8993;SDS011;4532;50.886;4.700;2023-05-07T02:05:20;9.82;;;5.28;;
8993;SDS011;4532;50.886;4.700;2023-05-07T02:07:53;7.55;;;5.20;;
8993;SDS011;4532;50.886;4.700;2023-05-07T02:10:20;6.82;;;5.03;;
8993;SDS011;4532;50.886;4.700;2023-05-07T02:12:47;6.00;;;4.60;;
8993;SDS011;4532;50.886;4.700;2023-05-07T02:15:14;6.70;;;5.20;;
8993;SDS011;4532;50.886;4.700;2023-05-07T02:18:00;7.38;;;5.30;;
8993;SDS011;4532;50.886;4.700;2023-05-07T02:20:29;8.63;;;5.57;;
8993;SDS011;4532;50.886;4.700;2023-05-07T02:22:57;8.80;;;5.55;;
8993;SDS011;4532;50.886;4.700;2023-05-07T02:25:24;9.00;;;5.90;;
8993;SDS011;4532;50.886;4.700;2023-05-07T02:27:54;6.18;;;5.47;;
8993;SDS011;4532;50.886;4.700;2023-05-07T02:30:21;8.77;;;6.18;;
8993;SDS011;4532;50.886;4.700;2023-05-07T02:32:48;7.38;;;6.00;;
8993;SDS011;4532;50.886;4.700;2023-05-07T02:35:18;8.73;;;6.03;;
8993;SDS011;4532;50.886;4.700;2023-05-07T02:37:47;7.63;;;6.20;;
8993;SDS011;4532;50.886;4.700;2023-05-07T02:40:14;9.88;;;6.93;;
8993;SDS011;4532;50.886;4.700;2023-05-07T02:42:42;8.05;;;6.55;;
8993;SDS011;4532;50.886;4.700;2023-05-07T02:45:13;9.98;;;7.05;;
8993;SDS011;4532;50.886;4.700;2023-05-07T02:47:41;7.85;;;6.13;;
8993;SDS011;4532;50.886;4.700;2023-05-07T02:50:08;9.27;;;6.80;;
8993;SDS011;4532;50.886;4.700;2023-05-07T02:52:36;7.38;;;6.45;;
8993;SDS011;4532;50.886;4.700;2023-05-07T02:55:03;8.70;;;6.68;;
8993;SDS011;4532;50.886;4.700;2023-05-07T02:57:30;7.15;;;6.43;;
8993;SDS011;4532;50.886;4.700;2023-05-07T02:59:58;7.47;;;6.13;;
8993;SDS011;4532;50.886;4.700;2023-05-07T03:02:38;6.63;;;6.00;;
8993;SDS011;4532;50.886;4.700;2023-05-07T03:05:06;7.35;;;6.45;;
8993;SDS011;4532;50.886;4.700;2023-05-07T03:07:36;8.43;;;6.57;;
8993;SDS011;4532;50.886;4.700;2023-05-07T03:10:05;7.40;;;5.70;;
8993;SDS011;4532;50.886;4.700;2023-05-07T03:12:36;6.93;;;6.07;;
8993;SDS011;4532;50.886;4.700;2023-05-07T03:15:03;7.72;;;6.22;;
8993;SDS011;4532;50.886;4.700;2023-05-07T03:17:32;8.00;;;6.13;;
8993;SDS011;4532;50.886;4.700;2023-05-07T03:19:59;8.10;;;6.57;;
8993;SDS011;4532;50.886;4.700;2023-05-07T03:22:29;9.55;;;6.32;;
8993;SDS011;4532;50.886;4.700;2023-05-07T03:24:56;9.85;;;6.65;;
8993;SDS011;4532;50.886;4.700;2023-05-07T03:27:26;10.93;;;7.18;;
8993;SDS011;4532;50.886;4.700;2023-05-07T03:29:55;9.73;;;6.90;;
8993;SDS011;4532;50.886;4.700;2023-05-07T03:32:22;7.20;;;6.45;;
8993;SDS011;4532;50.886;4.700;2023-05-07T03:34:52;9.10;;;6.95;;
8993;SDS011;4532;50.886;4.700;2023-05-07T03:37:19;9.00;;;6.93;;
8993;SDS011;4532;50.886;4.700;2023-05-07T03:39:48;7.78;;;6.75;;
8993;SDS011;4532;50.886;4.700;2023-05-07T03:42:20;7.60;;;6.65;;
8993;SDS011;4532;50.886;4.700;2023-05-07T03:44:47;10.60;;;7.93;;
8993;SDS011;4532;50.886;4.700;2023-05-07T03:47:18;10.48;;;7.65;;
8993;SDS011;4532;50.886;4.700;2023-05-07T03:49:48;10.35;;;6.93;;
8993;SDS011;4532;50.886;4.700;2023-05-07T03:52:16;8.18;;;7.38;;
8993;SDS011;4532;50.886;4.700;2023-05-07T03:54:51;9.30;;;7.20;;
8993;SDS011;4532;50.886;4.700;2023-05-07T03:57:23;10.13;;;7.47;;
8993;SDS011;4532;50.886;4.700;2023-05-07T03:59:56;8.57;;;7.60;;
8993;SDS011;4532;50.886;4.700;2023-05-07T04:02:25;9.45;;;6.78;;
8993;SDS011;4532;50.886;4.700;2023-05-07T04:04:52;8.30;;;6.57;;
8993;SDS011;4532;50.886;4.700;2023-05-07T04:07:24;9.20;;;6.50;;
8993;SDS011;4532;50.886;4.700;2023-05-07T04:09:51;9.18;;;6.85;;
8993;SDS011;4532;50.886;4.700;2023-05-07T04:12:21;7.72;;;5.68;;
8993;SDS011;4532;50.886;4.700;2023-05-07T04:14:52;9.48;;;6.40;;
8993;SDS011;4532;50.886;4.700;2023-05-07T04:17:22;10.77;;;7.15;;
8993;SDS011;4532;50.886;4.700;2023-05-07T04:19:54;10.68;;;6.60;;
8993;SDS011;4532;50.886;4.700;2023-05-07T04:22:24;9.13;;;7.00;;
8993;SDS011;4532;50.886;4.700;2023-05-07T04:24:53;8.27;;;6.40;;
8993;SDS011;4532;50.886;4.700;2023-05-07T04:27:21;10.10;;;6.40;;
8993;SDS011;4532;50.886;4.700;2023-05-07T04:29:50;11.98;;;6.75;;
8993;SDS011;4532;50.886;4.700;2023-05-07T04:32:22;9.00;;;6.85;;
8993;SDS011;4532;50.886;4.700;2023-05-07T04:34:51;8.30;;;6.38;;
8993;SDS011;4532;50.886;4.700;2023-05-07T04:37:19;9.60;;;6.72;;
8993;SDS011;4532;50.886;4.700;2023-05-07T04:39:48;8.52;;;7.05;;
8993;SDS011;4532;50.886;4.700;2023-05-07T04:42:18;10.50;;;7.15;;
8993;SDS011;4532;50.886;4.700;2023-05-07T04:44:45;10.63;;;7.57;;
8993;SDS011;4532;50.886;4.700;2023-05-07T04:47:12;9.93;;;7.88;;
8993;SDS011;4532;50.886;4.700;2023-05-07T04:49:39;8.90;;;7.75;;
8993;SDS011;4532;50.886;4.700;2023-05-07T04:52:06;11.27;;;8.55;;
8993;SDS011;4532;50.886;4.700;2023-05-07T04:54:34;10.10;;;8.70;;
8993;SDS011;4532;50.886;4.700;2023-05-07T04:57:03;9.65;;;8.40;;
8993;SDS011;4532;50.886;4.700;2023-05-07T04:59:31;10.13;;;9.13;;
8993;SDS011;4532;50.886;4.700;2023-05-07T05:01:59;9.60;;;8.70;;
8993;SDS011;4532;50.886;4.700;2023-05-07T05:04:29;12.10;;;9.70;;
8993;SDS011;4532;50.886;4.700;2023-05-07T05:06:57;9.63;;;8.65;;
8993;SDS011;4532;50.886;4.700;2023-05-07T05:09:24;12.10;;;9.38;;
8993;SDS011;4532;50.886;4.700;2023-05-07T05:11:51;11.85;;;8.57;;
8993;SDS011;4532;50.886;4.700;2023-05-07T05:14:21;10.35;;;9.30;;
8993;SDS011;4532;50.886;4.700;2023-05-07T05:16:51;9.98;;;8.88;;
8993;SDS011;4532;50.886;4.700;2023-05-07T05:19:20;10.40;;;8.63;;
8993;SDS011;4532;50.886;4.700;2023-05-07T05:21:47;9.15;;;8.23;;
8993;SDS011;4532;50.886;4.700;2023-05-07T05:24:17;10.95;;;8.77;;
8993;SDS011;4532;50.886;4.700;2023-05-07T05:26:44;11.13;;;8.50;;
8993;SDS011;4532;50.886;4.700;2023-05-07T05:29:11;11.32;;;8.55;;
8993;SDS011;4532;50.886;4.700;2023-05-07T05:31:43;10.25;;;8.38;;
8993;SDS011;4532;50.886;4.700;2023-05-07T05:34:10;9.38;;;8.25;;
8993;SDS011;4532;50.886;4.700;2023-05-07T05:36:40;9.20;;;7.95;;
8993;SDS011;4532;50.886;4.700;2023-05-07T05:39:10;8.50;;;7.68;;
8993;SDS011;4532;50.886;4.700;2023-05-07T05:41:44;9.73;;;8.32;;
8993;SDS011;4532;50.886;4.700;2023-05-07T05:44:12;10.07;;;7.95;;
8993;SDS011;4532;50.886;4.700;2023-05-07T05:46:41;10.32;;;8.18;;
8993;SDS011;4532;50.886;4.700;2023-05-07T05:49:08;13.57;;;8.93;;
8993;SDS011;4532;50.886;4.700;2023-05-07T05:51:38;10.13;;;7.72;;
8993;SDS011;4532;50.886;4.700;2023-05-07T05:54:10;9.32;;;8.32;;
8993;SDS011;4532;50.886;4.700;2023-05-07T05:56:37;11.23;;;8.65;;
8993;SDS011;4532;50.886;4.700;2023-05-07T05:59:12;9.85;;;8.00;;
8993;SDS011;4532;50.886;4.700;2023-05-07T06:01:39;11.25;;;8.55;;
8993;SDS011;4532;50.886;4.700;2023-05-07T06:04:07;9.48;;;8.07;;
8993;SDS011;4532;50.886;4.700;2023-05-07T06:06:34;9.95;;;8.25;;
8993;SDS011;4532;50.886;4.700;2023-05-07T06:09:01;11.23;;;7.88;;
8993;SDS011;4532;50.886;4.700;2023-05-07T06:11:28;9.05;;;8.15;;
8993;SDS011;4532;50.886;4.700;2023-05-07T06:13:55;9.80;;;8.02;;
8993;SDS011;4532;50.886;4.700;2023-05-07T06:16:24;10.43;;;7.55;;
8993;SDS011;4532;50.886;4.700;2023-05-07T06:18:51;8.75;;;7.22;;
8993;SDS011;4532;50.886;4.700;2023-05-07T06:21:21;8.75;;;7.25;;
8993;SDS011;4532;50.886;4.700;2023-05-07T06:23:48;9.82;;;7.38;;
8993;SDS011;4532;50.886;4.700;2023-05-07T06:26:15;9.77;;;6.85;;
8993;SDS011;4532;50.886;4.700;2023-05-07T06:28:42;9.13;;;6.78;;
8993;SDS011;4532;50.886;4.700;2023-05-07T06:33:44;12.63;;;6.57;;
8993;SDS011;4532;50.886;4.700;2023-05-07T06:36:11;9.25;;;6.45;;
8993;SDS011;4532;50.886;4.700;2023-05-07T06:38:44;8.40;;;5.75;;
8993;SDS011;4532;50.886;4.700;2023-05-07T06:41:13;9.85;;;5.85;;
8993;SDS011;4532;50.886;4.700;2023-05-07T06:43:43;8.20;;;5.60;;
8993;SDS011;4532;50.886;4.700;2023-05-07T06:46:10;8.00;;;5.50;;
8993;SDS011;4532;50.886;4.700;2023-05-07T06:48:40;8.35;;;5.18;;
8993;SDS011;4532;50.886;4.700;2023-05-07T06:51:07;7.63;;;5.20;;
8993;SDS011;4532;50.886;4.700;2023-05-07T06:53:36;8.40;;;4.95;;
8993;SDS011;4532;50.886;4.700;2023-05-07T06:56:03;8.15;;;4.93;;
8993;SDS011;4532;50.886;4.700;2023-05-07T06:58:33;5.65;;;4.45;;
8993;SDS011;4532;50.886;4.700;2023-05-07T07:01:06;11.60;;;4.97;;
8993;SDS011;4532;50.886;4.700;2023-05-07T07:03:33;8.60;;;5.03;;
8993;SDS011;4532;50.886;4.700;2023-05-07T07:06:01;9.45;;;4.78;;
8993;SDS011;4532;50.886;4.700;2023-05-07T07:08:33;7.38;;;5.28;;
8993;SDS011;4532;50.886;4.700;2023-05-07T07:11:01;9.85;;;4.97;;
8993;SDS011;4532;50.886;4.700;2023-05-07T07:13:30;8.55;;;4.70;;
8993;SDS011;4532;50.886;4.700;2023-05-07T07:16:00;8.38;;;4.60;;
8993;SDS011;4532;50.886;4.700;2023-05-07T07:18:27;8.07;;;4.00;;
8993;SDS011;4532;50.886;4.700;2023-05-07T07:20:55;8.77;;;4.50;;
8993;SDS011;4532;50.886;4.700;2023-05-07T07:23:24;6.03;;;4.38;;
8993;SDS011;4532;50.886;4.700;2023-05-07T07:25:56;7.10;;;3.83;;
8993;SDS011;4532;50.886;4.700;2023-05-07T07:28:25;6.50;;;3.72;;
8993;SDS011;4532;50.886;4.700;2023-05-07T07:30:53;7.90;;;4.47;;
8993;SDS011;4532;50.886;4.700;2023-05-07T07:33:20;5.40;;;3.60;;
8993;SDS011;4532;50.886;4.700;2023-05-07T07:35:47;6.15;;;3.47;;
8993;SDS011;4532;50.886;4.700;2023-05-07T07:38:14;6.70;;;3.20;;
8993;SDS011;4532;50.886;4.700;2023-05-07T07:40:43;6.15;;;3.10;;
8993;SDS011;4532;50.886;4.700;2023-05-07T07:43:11;5.40;;;2.88;;
8993;SDS011;4532;50.886;4.700;2023-05-07T07:45:40;4.20;;;2.58;;
8993;SDS011;4532;50.886;4.700;2023-05-07T07:48:08;6.03;;;2.53;;
8993;SDS011;4532;50.886;4.700;2023-05-07T07:50:38;5.25;;;2.50;;
8993;SDS011;4532;50.886;4.700;2023-05-07T07:53:11;6.15;;;2.40;;
8993;SDS011;4532;50.886;4.700;2023-05-07T07:55:43;4.85;;;2.42;;
8993;SDS011;4532;50.886;4.700;2023-05-07T07:58:11;2.83;;;2.13;;
8993;SDS011;4532;50.886;4.700;2023-05-07T08:00:43;5.00;;;2.65;;
8993;SDS011;4532;50.886;4.700;2023-05-07T08:03:10;7.32;;;3.35;;
8993;SDS011;4532;50.886;4.700;2023-05-07T08:05:38;8.00;;;3.60;;
8993;SDS011;4532;50.886;4.700;2023-05-07T08:08:12;9.02;;;3.97;;
8993;SDS011;4532;50.886;4.700;2023-05-07T08:10:41;9.25;;;4.13;;
8993;SDS011;4532;50.886;4.700;2023-05-07T08:13:09;8.68;;;3.50;;
8993;SDS011;4532;50.886;4.700;2023-05-07T08:15:38;9.25;;;3.33;;
8993;SDS011;4532;50.886;4.700;2023-05-07T08:18:08;7.28;;;3.53;;
8993;SDS011;4532;50.886;4.700;2023-05-07T08:20:35;4.88;;;3.15;;
8993;SDS011;4532;50.886;4.700;2023-05-07T08:23:06;7.70;;;3.30;;
8993;SDS011;4532;50.886;4.700;2023-05-07T08:25:35;6.60;;;2.80;;
8993;SDS011;4532;50.886;4.700;2023-05-07T08:28:03;7.80;;;3.20;;
8993;SDS011;4532;50.886;4.700;2023-05-07T08:30:35;5.82;;;2.95;;
8993;SDS011;4532;50.886;4.700;2023-05-07T08:33:10;7.38;;;3.20;;
8993;SDS011;4532;50.886;4.700;2023-05-07T08:35:39;4.97;;;3.20;;
8993;SDS011;4532;50.886;4.700;2023-05-07T08:38:09;8.20;;;3.25;;
8993;SDS011;4532;50.886;4.700;2023-05-07T08:40:38;6.50;;;2.90;;
8993;SDS011;4532;50.886;4.700;2023-05-07T08:43:08;6.30;;;3.40;;
8993;SDS011;4532;50.886;4.700;2023-05-07T08:45:39;4.82;;;3.03;;
8993;SDS011;4532;50.886;4.700;2023-05-07T08:48:16;4.97;;;3.15;;
8993;SDS011;4532;50.886;4.700;2023-05-07T08:50:50;5.88;;;3.22;;
8993;SDS011;4532;50.886;4.700;2023-05-07T08:53:17;5.72;;;3.47;;
8993;SDS011;4532;50.886;4.700;2023-05-07T08:55:52;7.32;;;3.38;;
8993;SDS011;4532;50.886;4.700;2023-05-07T08:58:22;4.57;;;2.90;;
8993;SDS011;4532;50.886;4.700;2023-05-07T09:00:51;4.80;;;2.67;;
8993;SDS011;4532;50.886;4.700;2023-05-07T09:03:20;4.28;;;3.00;;
8993;SDS011;4532;50.886;4.700;2023-05-07T09:05:50;6.03;;;3.15;;
8993;SDS011;4532;50.886;4.700;2023-05-07T09:08:17;4.00;;;2.75;;
8993;SDS011;4532;50.886;4.700;2023-05-07T09:10:44;4.88;;;3.28;;
8993;SDS011;4532;50.886;4.700;2023-05-07T09:13:14;5.22;;;3.10;;
8993;SDS011;4532;50.886;4.700;2023-05-07T09:15:41;3.97;;;2.90;;
8993;SDS011;4532;50.886;4.700;2023-05-07T09:18:10;4.70;;;2.78;;
8993;SDS011;4532;50.886;4.700;2023-05-07T09:20:46;6.75;;;3.70;;
8993;SDS011;4532;50.886;4.700;2023-05-07T09:23:13;6.60;;;3.53;;
8993;SDS011;4532;50.886;4.700;2023-05-07T09:25:43;4.95;;;2.72;;
8993;SDS011;4532;50.886;4.700;2023-05-07T09:28:17;4.95;;;2.80;;
8993;SDS011;4532;50.886;4.700;2023-05-07T09:30:44;4.40;;;2.70;;
8993;SDS011;4532;50.886;4.700;2023-05-07T09:33:11;6.10;;;2.92;;
8993;SDS011;4532;50.886;4.700;2023-05-07T09:35:41;4.43;;;2.63;;
8993;SDS011;4532;50.886;4.700;2023-05-07T09:38:10;4.78;;;2.67;;
8993;SDS011;4532;50.886;4.700;2023-05-07T09:40:40;4.82;;;2.58;;
8993;SDS011;4532;50.886;4.700;2023-05-07T09:43:13;5.95;;;3.08;;
8993;SDS011;4532;50.886;4.700;2023-05-07T09:45:42;5.03;;;2.70;;
8993;SDS011;4532;50.886;4.700;2023-05-07T09:48:10;4.75;;;2.53;;
8993;SDS011;4532;50.886;4.700;2023-05-07T09:50:45;5.13;;;2.85;;
8993;SDS011;4532;50.886;4.700;2023-05-07T09:53:16;5.22;;;2.72;;
8993;SDS011;4532;50.886;4.700;2023-05-07T09:55:48;5.70;;;2.70;;
8993;SDS011;4532;50.886;4.700;2023-05-07T09:58:21;4.30;;;2.42;;
8993;SDS011;4532;50.886;4.700;2023-05-07T10:00:53;5.32;;;2.58;;
8993;SDS011;4532;50.886;4.700;2023-05-07T10:03:22;3.80;;;2.30;;
8993;SDS011;4532;50.886;4.700;2023-05-07T10:05:56;5.60;;;2.50;;
8993;SDS011;4532;50.886;4.700;2023-05-07T10:08:27;4.18;;;2.13;;
8993;SDS011;4532;50.886;4.700;2023-05-07T10:11:00;3.97;;;2.25;;
8993;SDS011;4532;50.886;4.700;2023-05-07T10:13:28;5.43;;;2.28;;
8993;SDS011;4532;50.886;4.700;2023-05-07T10:15:55;6.90;;;2.50;;
8993;SDS011;4532;50.886;4.700;2023-05-07T10:18:28;5.78;;;2.63;;
8993;SDS011;4532;50.886;4.700;2023-05-07T10:26:43;8.05;;;2.85;;
8993;SDS011;4532;50.886;4.700;2023-05-07T10:32:19;3.42;;;2.35;;
8993;SDS011;4532;50.886;4.700;2023-05-07T10:35:06;5.80;;;2.60;;
8993;SDS011;4532;50.886;4.700;2023-05-07T10:37:42;6.00;;;3.05;;
8993;SDS011;4532;50.886;4.700;2023-05-07T10:40:11;3.70;;;2.60;;
8993;SDS011;4532;50.886;4.700;2023-05-07T10:43:04;4.85;;;2.60;;
8993;SDS011;4532;50.886;4.700;2023-05-07T10:45:34;4.03;;;2.22;;
8993;SDS011;4532;50.886;4.700;2023-05-07T10:48:13;6.18;;;2.47;;
8993;SDS011;4532;50.886;4.700;2023-05-07T10:56:41;7.15;;;2.30;;
8993;SDS011;4532;50.886;4.700;2023-05-07T11:04:29;3.95;;;2.17;;
8993;SDS011;4532;50.886;4.700;2023-05-07T11:09:58;4.03;;;2.13;;
8993;SDS011;4532;50.886;4.700;2023-05-07T11:17:31;3.25;;;1.92;;
8993;SDS011;4532;50.886;4.700;2023-05-07T11:20:05;4.43;;;1.60;;
8993;SDS011;4532;50.886;4.700;2023-05-07T11:25:04;2.88;;;1.48;;
8993;SDS011;4532;50.886;4.700;2023-05-07T11:27:35;5.55;;;1.63;;
8993;SDS011;4532;50.886;4.700;2023-05-07T11:30:07;3.47;;;1.60;;
8993;SDS011;4532;50.886;4.700;2023-05-07T11:32:35;5.30;;;1.60;;
8993;SDS011;4532;50.886;4.700;2023-05-07T11:35:03;4.18;;;1.70;;
8993;SDS011;4532;50.886;4.700;2023-05-07T11:37:30;6.97;;;1.80;;
8993;SDS011;4532;50.886;4.700;2023-05-07T11:40:03;2.88;;;1.60;;
8993;SDS011;4532;50.886;4.700;2023-05-07T11:42:40;6.63;;;2.05;;
8993;SDS011;4532;50.886;4.700;2023-05-07T11:45:10;4.18;;;2.03;;
8993;SDS011;4532;50.886;4.700;2023-05-07T11:47:38;5.13;;;1.98;;
8993;SDS011;4532;50.886;4.700;2023-05-07T11:50:13;4.80;;;2.10;;
8993;SDS011;4532;50.886;4.700;2023-05-07T11:52:40;4.82;;;1.95;;
8993;SDS011;4532;50.886;4.700;2023-05-07T11:55:20;3.85;;;1.80;;
8993;SDS011;4532;50.886;4.700;2023-05-07T11:57:49;4.50;;;1.92;;
8993;SDS011;4532;50.886;4.700;2023-05-07T12:00:18;4.30;;;2.05;;
8993;SDS011;4532;50.886;4.700;2023-05-07T12:02:48;4.65;;;1.85;;
8993;SDS011;4532;50.886;4.700;2023-05-07T12:05:17;3.80;;;1.55;;
8993;SDS011;4532;50.886;4.700;2023-05-07T12:07:47;3.58;;;1.30;;
8993;SDS011;4532;50.886;4.700;2023-05-07T12:10:21;2.58;;;1.40;;
8993;SDS011;4532;50.886;4.700;2023-05-07T12:12:49;4.13;;;1.73;;
8993;SDS011;4532;50.886;4.700;2023-05-07T12:15:22;5.50;;;2.10;;
8993;SDS011;4532;50.886;4.700;2023-05-07T12:17:51;3.33;;;1.25;;
8993;SDS011;4532;50.886;4.700;2023-05-07T12:20:21;2.90;;;1.17;;
8993;SDS011;4532;50.886;4.700;2023-05-07T12:22:50;3.83;;;2.08;;
8993;SDS011;4532;50.886;4.700;2023-05-07T12:25:20;3.15;;;1.58;;
8993;SDS011;4532;50.886;4.700;2023-05-07T12:27:51;4.78;;;1.90;;
8993;SDS011;4532;50.886;4.700;2023-05-07T12:30:21;3.50;;;1.80;;
8993;SDS011;4532;50.886;4.700;2023-05-07T12:32:54;2.55;;;1.40;;
8993;SDS011;4532;50.886;4.700;2023-05-07T12:35:28;3.17;;;1.58;;
8993;SDS011;4532;50.886;4.700;2023-05-07T12:37:56;3.40;;;1.52;;
8993;SDS011;4532;50.886;4.700;2023-05-07T12:41:06;3.65;;;1.50;;
8993;SDS011;4532;50.886;4.700;2023-05-07T12:43:26;4.03;;;2.05;;
8993;SDS011;4532;50.886;4.700;2023-05-07T12:45:59;3.33;;;1.45;;
8993;SDS011;4532;50.886;4.700;2023-05-07T12:48:33;3.75;;;1.70;;
8993;SDS011;4532;50.886;4.700;2023-05-07T12:51:02;4.30;;;1.80;;
8993;SDS011;4532;50.886;4.700;2023-05-07T12:53:31;4.28;;;1.70;;
8993;SDS011;4532;50.886;4.700;2023-05-07T12:56:03;5.10;;;1.90;;
8993;SDS011;4532;50.886;4.700;2023-05-07T12:58:37;4.63;;;2.08;;
8993;SDS011;4532;50.886;4.700;2023-05-07T13:01:09;3.65;;;1.90;;
8993;SDS011;4532;50.886;4.700;2023-05-07T13:03:38;2.85;;;1.60;;
8993;SDS011;4532;50.886;4.700;2023-05-07T13:06:08;4.10;;;1.92;;
8993;SDS011;4532;50.886;4.700;2023-05-07T13:08:40;3.08;;;1.70;;
8993;SDS011;4532;50.886;4.700;2023-05-07T13:11:13;5.93;;;1.90;;
8993;SDS011;4532;50.886;4.700;2023-05-07T13:13:43;2.47;;;1.40;;
8993;SDS011;4532;50.886;4.700;2023-05-07T13:16:12;3.50;;;1.65;;
8993;SDS011;4532;50.886;4.700;2023-05-07T13:18:44;2.25;;;1.50;;
8993;SDS011;4532;50.886;4.700;2023-05-07T13:21:13;4.00;;;1.67;;
8993;SDS011;4532;50.886;4.700;2023-05-07T13:23:40;2.35;;;1.48;;
8993;SDS011;4532;50.886;4.700;2023-05-07T13:26:10;2.75;;;1.52;;
8993;SDS011;4532;50.886;4.700;2023-05-07T13:28:54;5.50;;;1.85;;
8993;SDS011;4532;50.886;4.700;2023-05-07T13:31:21;3.90;;;1.70;;
8993;SDS011;4532;50.886;4.700;2023-05-07T13:33:51;3.25;;;1.45;;
8993;SDS011;4532;50.886;4.700;2023-05-07T13:36:22;4.25;;;1.75;;
8993;SDS011;4532;50.886;4.700;2023-05-07T13:38:50;2.28;;;1.40;;
8993;SDS011;4532;50.886;4.700;2023-05-07T13:41:18;3.08;;;1.60;;
8993;SDS011;4532;50.886;4.700;2023-05-07T13:43:50;4.70;;;1.80;;
8993;SDS011;4532;50.886;4.700;2023-05-07T13:46:17;3.72;;;1.75;;
8993;SDS011;4532;50.886;4.700;2023-05-07T13:48:47;4.57;;;1.80;;
8993;SDS011;4532;50.886;4.700;2023-05-07T13:51:16;4.72;;;2.03;;
8993;SDS011;4532;50.886;4.700;2023-05-07T13:53:45;1.98;;;1.48;;
8993;SDS011;4532;50.886;4.700;2023-05-07T13:56:19;3.88;;;1.70;;
8993;SDS011;4532;50.886;4.700;2023-05-07T13:58:46;4.68;;;2.35;;
8993;SDS011;4532;50.886;4.700;2023-05-07T14:01:25;5.43;;;2.05;;
8993;SDS011;4532;50.886;4.700;2023-05-07T14:03:53;3.67;;;1.70;;
8993;SDS011;4532;50.886;4.700;2023-05-07T14:06:22;4.65;;;1.85;;
8993;SDS011;4532;50.886;4.700;2023-05-07T14:08:52;3.30;;;1.80;;
8993;SDS011;4532;50.886;4.700;2023-05-07T14:11:19;2.28;;;1.50;;
8993;SDS011;4532;50.886;4.700;2023-05-07T14:13:49;2.88;;;1.70;;
8993;SDS011;4532;50.886;4.700;2023-05-07T14:16:16;2.08;;;1.42;;
8993;SDS011;4532;50.886;4.700;2023-05-07T14:18:43;3.05;;;1.27;;
8993;SDS011;4532;50.886;4.700;2023-05-07T14:21:13;2.17;;;1.48;;
8993;SDS011;4532;50.886;4.700;2023-05-07T14:23:40;2.88;;;1.50;;
8993;SDS011;4532;50.886;4.700;2023-05-07T14:26:13;2.67;;;1.80;;
8993;SDS011;4532;50.886;4.700;2023-05-07T14:28:42;1.70;;;1.30;;
8993;SDS011;4532;50.886;4.700;2023-05-07T14:31:13;2.65;;;1.60;;
8993;SDS011;4532;50.886;4.700;2023-05-07T14:33:40;2.75;;;1.42;;
8993;SDS011;4532;50.886;4.700;2023-05-07T14:36:09;2.92;;;1.65;;
8993;SDS011;4532;50.886;4.700;2023-05-07T14:38:39;2.05;;;1.52;;
8993;SDS011;4532;50.886;4.700;2023-05-07T14:41:08;2.83;;;1.50;;
8993;SDS011;4532;50.886;4.700;2023-05-07T14:43:36;2.42;;;1.63;;
8993;SDS011;4532;50.886;4.700;2023-05-07T14:46:08;4.45;;;1.88;;
8993;SDS011;4532;50.886;4.700;2023-05-07T14:48:35;2.05;;;1.27;;
8993;SDS011;4532;50.886;4.700;2023-05-07T14:51:04;3.28;;;1.50;;
8993;SDS011;4532;50.886;4.700;2023-05-07T14:53:34;3.60;;;1.90;;
8993;SDS011;4532;50.886;4.700;2023-05-07T14:56:03;2.17;;;1.58;;
8993;SDS011;4532;50.886;4.700;2023-05-07T14:58:36;2.63;;;1.77;;
8993;SDS011;4532;50.886;4.700;2023-05-07T15:01:06;2.80;;;1.88;;
8993;SDS011;4532;50.886;4.700;2023-05-07T15:03:35;3.47;;;1.88;;
8993;SDS011;4532;50.886;4.700;2023-05-07T15:06:03;4.18;;;1.83;;
8993;SDS011;4532;50.886;4.700;2023-05-07T15:08:33;4.05;;;1.80;;
8993;SDS011;4532;50.886;4.700;2023-05-07T15:11:00;3.47;;;1.70;;
8993;SDS011;4532;50.886;4.700;2023-05-07T15:13:27;2.50;;;1.65;;
8993;SDS011;4532;50.886;4.700;2023-05-07T15:15:54;4.30;;;1.60;;
8993;SDS011;4532;50.886;4.700;2023-05-07T15:18:22;1.90;;;1.48;;
8993;SDS011;4532;50.886;4.700;2023-05-07T15:20:49;2.75;;;1.80;;
8993;SDS011;4532;50.886;4.700;2023-05-07T15:23:16;3.00;;;1.60;;
8993;SDS011;4532;50.886;4.700;2023-05-07T15:25:48;2.97;;;1.80;;
8993;SDS011;4532;50.886;4.700;2023-05-07T15:28:18;3.63;;;1.95;;
8993;SDS011;4532;50.886;4.700;2023-05-07T15:30:46;3.45;;;2.30;;
8993;SDS011;4532;50.886;4.700;2023-05-07T15:33:13;2.42;;;1.90;;
8993;SDS011;4532;50.886;4.700;2023-05-07T15:35:43;2.80;;;1.77;;
8993;SDS011;4532;50.886;4.700;2023-05-07T15:38:13;3.25;;;2.08;;
8993;SDS011;4532;50.886;4.700;2023-05-07T15:40:40;2.40;;;1.77;;
8993;SDS011;4532;50.886;4.700;2023-05-07T15:43:13;3.90;;;2.00;;
8993;SDS011;4532;50.886;4.700;2023-05-07T15:45:43;3.30;;;1.90;;
8993;SDS011;4532;50.886;4.700;2023-05-07T15:48:10;4.43;;;2.10;;
8993;SDS011;4532;50.886;4.700;2023-05-07T15:50:40;2.63;;;2.00;;
8993;SDS011;4532;50.886;4.700;2023-05-07T15:53:10;2.28;;;1.77;;
8993;SDS011;4532;50.886;4.700;2023-05-07T15:55:41;2.63;;;1.90;;
8993;SDS011;4532;50.886;4.700;2023-05-07T15:58:12;3.00;;;2.10;;
8993;SDS011;4532;50.886;4.700;2023-05-07T16:00:39;2.55;;;2.00;;
8993;SDS011;4532;50.886;4.700;2023-05-07T16:03:07;2.60;;;2.08;;